sensor_id;sensor_type;location;lat;lon;timestamp;P1;durP1;ratioP1;P2;durP2;ratioP2
74656;SDS011;63185;45.642;13.764;2023-03-01T00:01:52;32.63;;;18.45;;
74656;SDS011;63185;45.642;13.764;2023-03-01T00:04:18;32.92;;;17.52;;
74656;SDS011;63185;45.642;13.764;2023-03-01T00:06:44;34.03;;;18.63;;
74656;SDS011;63185;45.642;13.764;2023-03-01T00:09:11;30.30;;;18.52;;
74656;SDS011;63185;45.642;13.764;2023-03-01T00:11:38;31.42;;;17.55;;
74656;SDS011;63185;45.642;13.764;2023-03-01T00:14:03;32.65;;;17.98;;
74656;SDS011;63185;45.642;13.764;2023-03-01T00:16:34;36.47;;;18.23;;
74656;SDS011;63185;45.642;13.764;2023-03-01T00:19:03;33.67;;;18.60;;
74656;SDS011;63185;45.642;13.764;2023-03-01T00:21:29;32.55;;;15.57;;
74656;SDS011;63185;45.642;13.764;2023-03-01T00:23:55;33.50;;;18.27;;
74656;SDS011;63185;45.642;13.764;2023-03-01T00:26:21;33.13;;;18.42;;
74656;SDS011;63185;45.642;13.764;2023-03-01T00:28:47;31.15;;;18.27;;
74656;SDS011;63185;45.642;13.764;2023-03-01T00:31:18;30.73;;;17.30;;
74656;SDS011;63185;45.642;13.764;2023-03-01T00:33:46;34.88;;;19.08;;
74656;SDS011;63185;45.642;13.764;2023-03-01T00:36:12;33.67;;;17.40;;
74656;SDS011;63185;45.642;13.764;2023-03-01T00:38:40;33.20;;;18.73;;
74656;SDS011;63185;45.642;13.764;2023-03-01T00:41:09;33.28;;;17.05;;
74656;SDS011;63185;45.642;13.764;2023-03-01T00:43:37;35.55;;;18.75;;
74656;SDS011;63185;45.642;13.764;2023-03-01T00:46:04;30.25;;;17.67;;
74656;SDS011;63185;45.642;13.764;2023-03-01T00:48:34;32.17;;;17.23;;
74656;SDS011;63185;45.642;13.764;2023-03-01T00:51:10;31.98;;;17.50;;
74656;SDS011;63185;45.642;13.764;2023-03-01T00:53:36;34.58;;;17.55;;
74656;SDS011;63185;45.642;13.764;2023-03-01T00:56:03;32.47;;;16.80;;
74656;SDS011;63185;45.642;13.764;2023-03-01T00:58:29;30.27;;;17.48;;
74656;SDS011;63185;45.642;13.764;2023-03-01T01:00:55;28.42;;;15.52;;
74656;SDS011;63185;45.642;13.764;2023-03-01T01:03:21;32.65;;;17.60;;
74656;SDS011;63185;45.642;13.764;2023-03-01T01:05:49;31.10;;;16.98;;
74656;SDS011;63185;45.642;13.764;2023-03-01T01:08:18;32.13;;;18.43;;
74656;SDS011;63185;45.642;13.764;2023-03-01T01:10:45;35.58;;;18.17;;
74656;SDS011;63185;45.642;13.764;2023-03-01T01:13:11;32.72;;;17.77;;
74656;SDS011;63185;45.642;13.764;2023-03-01T01:15:37;35.60;;;18.10;;
74656;SDS011;63185;45.642;13.764;2023-03-01T01:18:03;30.77;;;16.00;;
74656;SDS011;63185;45.642;13.764;2023-03-01T01:20:29;34.13;;;17.48;;
74656;SDS011;63185;45.642;13.764;2023-03-01T01:22:55;31.33;;;16.70;;
74656;SDS011;63185;45.642;13.764;2023-03-01T01:25:20;32.22;;;16.77;;
74656;SDS011;63185;45.642;13.764;2023-03-01T01:27:46;32.97;;;17.02;;
74656;SDS011;63185;45.642;13.764;2023-03-01T01:30:12;32.28;;;17.27;;
74656;SDS011;63185;45.642;13.764;2023-03-01T01:32:38;33.08;;;17.80;;
74656;SDS011;63185;45.642;13.764;2023-03-01T01:35:04;32.80;;;17.90;;
74656;SDS011;63185;45.642;13.764;2023-03-01T01:37:30;32.63;;;17.52;;
74656;SDS011;63185;45.642;13.764;2023-03-01T01:39:58;30.17;;;16.00;;
74656;SDS011;63185;45.642;13.764;2023-03-01T01:42:25;35.28;;;17.08;;
74656;SDS011;63185;45.642;13.764;2023-03-01T01:47:55;31.40;;;18.50;;
74656;SDS011;63185;45.642;13.764;2023-03-01T01:50:25;33.15;;;18.08;;
74656;SDS011;63185;45.642;13.764;2023-03-01T01:52:52;29.02;;;16.88;;
74656;SDS011;63185;45.642;13.764;2023-03-01T01:55:21;34.42;;;17.55;;
74656;SDS011;63185;45.642;13.764;2023-03-01T01:57:54;33.33;;;17.33;;
74656;SDS011;63185;45.642;13.764;2023-03-01T02:00:27;33.70;;;17.48;;
74656;SDS011;63185;45.642;13.764;2023-03-01T02:02:55;32.70;;;16.15;;
74656;SDS011;63185;45.642;13.764;2023-03-01T02:08:11;31.63;;;17.38;;
74656;SDS011;63185;45.642;13.764;2023-03-01T02:10:39;30.90;;;17.57;;
74656;SDS011;63185;45.642;13.764;2023-03-01T02:13:06;30.58;;;17.23;;
74656;SDS011;63185;45.642;13.764;2023-03-01T02:15:35;31.13;;;17.25;;
74656;SDS011;63185;45.642;13.764;2023-03-01T02:18:02;32.92;;;17.55;;
74656;SDS011;63185;45.642;13.764;2023-03-01T02:23:00;32.35;;;17.50;;
74656;SDS011;63185;45.642;13.764;2023-03-01T02:25:34;29.02;;;16.05;;
74656;SDS011;63185;45.642;13.764;2023-03-01T02:30:38;33.08;;;17.95;;
74656;SDS011;63185;45.642;13.764;2023-03-01T02:33:25;29.80;;;16.20;;
74656;SDS011;63185;45.642;13.764;2023-03-01T02:35:51;28.08;;;16.48;;
74656;SDS011;63185;45.642;13.764;2023-03-01T02:38:19;30.02;;;16.95;;
74656;SDS011;63185;45.642;13.764;2023-03-01T02:40:47;34.80;;;17.52;;
74656;SDS011;63185;45.642;13.764;2023-03-01T02:43:15;30.33;;;16.40;;
74656;SDS011;63185;45.642;13.764;2023-03-01T02:45:49;34.22;;;16.80;;
74656;SDS011;63185;45.642;13.764;2023-03-01T02:48:17;30.20;;;16.90;;
74656;SDS011;63185;45.642;13.764;2023-03-01T02:53:41;27.08;;;16.65;;
74656;SDS011;63185;45.642;13.764;2023-03-01T02:56:33;29.67;;;16.35;;
74656;SDS011;63185;45.642;13.764;2023-03-01T02:58:59;29.10;;;14.75;;
74656;SDS011;63185;45.642;13.764;2023-03-01T03:01:25;28.88;;;15.52;;
74656;SDS011;63185;45.642;13.764;2023-03-01T03:04:01;30.77;;;16.50;;
74656;SDS011;63185;45.642;13.764;2023-03-01T03:06:35;30.67;;;16.50;;
74656;SDS011;63185;45.642;13.764;2023-03-01T03:09:01;30.73;;;17.00;;
74656;SDS011;63185;45.642;13.764;2023-03-01T03:11:28;28.50;;;16.48;;
74656;SDS011;63185;45.642;13.764;2023-03-01T03:13:55;28.92;;;16.35;;
74656;SDS011;63185;45.642;13.764;2023-03-01T03:16:21;29.08;;;15.88;;
74656;SDS011;63185;45.642;13.764;2023-03-01T03:18:47;31.70;;;15.95;;
74656;SDS011;63185;45.642;13.764;2023-03-01T03:21:13;26.38;;;14.80;;
74656;SDS011;63185;45.642;13.764;2023-03-01T03:23:39;31.55;;;16.52;;
74656;SDS011;63185;45.642;13.764;2023-03-01T03:26:05;27.95;;;15.65;;
74656;SDS011;63185;45.642;13.764;2023-03-01T03:28:34;29.45;;;16.23;;
74656;SDS011;63185;45.642;13.764;2023-03-01T03:31:00;26.75;;;15.30;;
74656;SDS011;63185;45.642;13.764;2023-03-01T03:33:29;32.47;;;17.67;;
74656;SDS011;63185;45.642;13.764;2023-03-01T03:35:55;28.05;;;15.73;;
74656;SDS011;63185;45.642;13.764;2023-03-01T03:38:21;28.27;;;16.10;;
74656;SDS011;63185;45.642;13.764;2023-03-01T03:43:17;30.92;;;17.40;;
74656;SDS011;63185;45.642;13.764;2023-03-01T03:45:45;31.27;;;16.10;;
74656;SDS011;63185;45.642;13.764;2023-03-01T03:48:11;28.58;;;15.20;;
74656;SDS011;63185;45.642;13.764;2023-03-01T03:50:38;27.55;;;16.90;;
74656;SDS011;63185;45.642;13.764;2023-03-01T03:53:05;27.00;;;15.55;;
74656;SDS011;63185;45.642;13.764;2023-03-01T03:55:33;30.20;;;16.85;;
74656;SDS011;63185;45.642;13.764;2023-03-01T03:58:00;29.00;;;17.35;;
74656;SDS011;63185;45.642;13.764;2023-03-01T04:00:33;29.27;;;15.70;;
74656;SDS011;63185;45.642;13.764;2023-03-01T04:03:00;31.00;;;16.92;;
74656;SDS011;63185;45.642;13.764;2023-03-01T04:05:26;30.02;;;16.00;;
74656;SDS011;63185;45.642;13.764;2023-03-01T04:07:52;29.33;;;16.90;;
74656;SDS011;63185;45.642;13.764;2023-03-01T04:10:26;27.98;;;15.88;;
74656;SDS011;63185;45.642;13.764;2023-03-01T04:12:53;29.42;;;17.25;;
74656;SDS011;63185;45.642;13.764;2023-03-01T04:15:21;30.05;;;17.40;;
74656;SDS011;63185;45.642;13.764;2023-03-01T04:17:49;28.05;;;16.35;;
74656;SDS011;63185;45.642;13.764;2023-03-01T04:20:17;26.85;;;15.68;;
74656;SDS011;63185;45.642;13.764;2023-03-01T04:22:52;33.33;;;16.67;;
74656;SDS011;63185;45.642;13.764;2023-03-01T04:25:22;29.48;;;16.17;;
74656;SDS011;63185;45.642;13.764;2023-03-01T04:27:48;31.42;;;17.73;;
74656;SDS011;63185;45.642;13.764;2023-03-01T04:30:14;26.70;;;15.90;;
74656;SDS011;63185;45.642;13.764;2023-03-01T04:32:40;29.55;;;15.75;;
74656;SDS011;63185;45.642;13.764;2023-03-01T04:35:06;30.08;;;16.65;;
74656;SDS011;63185;45.642;13.764;2023-03-01T04:37:32;27.42;;;14.68;;
74656;SDS011;63185;45.642;13.764;2023-03-01T04:39:59;29.35;;;16.17;;
74656;SDS011;63185;45.642;13.764;2023-03-01T04:42:25;26.90;;;16.50;;
74656;SDS011;63185;45.642;13.764;2023-03-01T04:44:51;29.45;;;16.60;;
74656;SDS011;63185;45.642;13.764;2023-03-01T04:47:17;28.35;;;15.68;;
74656;SDS011;63185;45.642;13.764;2023-03-01T04:49:43;27.38;;;13.80;;
74656;SDS011;63185;45.642;13.764;2023-03-01T04:52:08;28.88;;;15.63;;
74656;SDS011;63185;45.642;13.764;2023-03-01T04:54:34;28.75;;;15.50;;
74656;SDS011;63185;45.642;13.764;2023-03-01T04:57:01;29.38;;;14.82;;
74656;SDS011;63185;45.642;13.764;2023-03-01T04:59:28;30.65;;;15.60;;
74656;SDS011;63185;45.642;13.764;2023-03-01T05:01:54;25.85;;;15.73;;
74656;SDS011;63185;45.642;13.764;2023-03-01T05:04:21;28.23;;;15.20;;
74656;SDS011;63185;45.642;13.764;2023-03-01T05:06:47;26.77;;;14.68;;
74656;SDS011;63185;45.642;13.764;2023-03-01T05:09:13;28.60;;;15.93;;
74656;SDS011;63185;45.642;13.764;2023-03-01T05:11:39;30.13;;;16.75;;
74656;SDS011;63185;45.642;13.764;2023-03-01T05:14:05;28.98;;;15.57;;
74656;SDS011;63185;45.642;13.764;2023-03-01T05:16:31;27.90;;;15.88;;
74656;SDS011;63185;45.642;13.764;2023-03-01T05:18:58;28.25;;;15.60;;
74656;SDS011;63185;45.642;13.764;2023-03-01T05:21:24;26.45;;;15.70;;
74656;SDS011;63185;45.642;13.764;2023-03-01T05:23:50;32.30;;;16.60;;
74656;SDS011;63185;45.642;13.764;2023-03-01T05:26:17;29.77;;;16.13;;
74656;SDS011;63185;45.642;13.764;2023-03-01T05:28:44;27.58;;;16.63;;
74656;SDS011;63185;45.642;13.764;2023-03-01T05:31:10;30.58;;;16.35;;
74656;SDS011;63185;45.642;13.764;2023-03-01T05:33:36;30.35;;;17.23;;
74656;SDS011;63185;45.642;13.764;2023-03-01T05:36:03;28.08;;;15.43;;
74656;SDS011;63185;45.642;13.764;2023-03-01T05:38:29;30.55;;;15.10;;
74656;SDS011;63185;45.642;13.764;2023-03-01T05:40:55;28.63;;;15.23;;
74656;SDS011;63185;45.642;13.764;2023-03-01T05:43:21;31.45;;;17.20;;
74656;SDS011;63185;45.642;13.764;2023-03-01T05:45:46;31.60;;;17.48;;
74656;SDS011;63185;45.642;13.764;2023-03-01T05:48:12;27.60;;;15.43;;
74656;SDS011;63185;45.642;13.764;2023-03-01T05:50:40;29.58;;;16.75;;
74656;SDS011;63185;45.642;13.764;2023-03-01T05:53:17;29.23;;;16.95;;
74656;SDS011;63185;45.642;13.764;2023-03-01T05:55:46;28.10;;;15.80;;
74656;SDS011;63185;45.642;13.764;2023-03-01T05:58:18;28.63;;;16.70;;
74656;SDS011;63185;45.642;13.764;2023-03-01T06:00:45;29.33;;;15.57;;
74656;SDS011;63185;45.642;13.764;2023-03-01T06:03:13;28.13;;;15.80;;
74656;SDS011;63185;45.642;13.764;2023-03-01T06:05:41;29.98;;;16.73;;
74656;SDS011;63185;45.642;13.764;2023-03-01T06:08:08;33.70;;;16.88;;
74656;SDS011;63185;45.642;13.764;2023-03-01T06:10:35;29.88;;;16.80;;
74656;SDS011;63185;45.642;13.764;2023-03-01T06:13:00;30.17;;;16.50;;
74656;SDS011;63185;45.642;13.764;2023-03-01T06:15:26;30.75;;;15.35;;
74656;SDS011;63185;45.642;13.764;2023-03-01T06:17:53;32.20;;;17.63;;
74656;SDS011;63185;45.642;13.764;2023-03-01T06:20:21;35.47;;;16.90;;
74656;SDS011;63185;45.642;13.764;2023-03-01T06:22:48;29.15;;;16.88;;
74656;SDS011;63185;45.642;13.764;2023-03-01T06:25:15;31.00;;;17.77;;
74656;SDS011;63185;45.642;13.764;2023-03-01T06:27:43;31.15;;;15.55;;
74656;SDS011;63185;45.642;13.764;2023-03-01T06:30:13;27.45;;;15.68;;
74656;SDS011;63185;45.642;13.764;2023-03-01T06:32:40;27.92;;;14.80;;
74656;SDS011;63185;45.642;13.764;2023-03-01T06:35:10;26.85;;;15.38;;
74656;SDS011;63185;45.642;13.764;2023-03-01T06:37:37;27.85;;;15.50;;
74656;SDS011;63185;45.642;13.764;2023-03-01T06:40:03;28.08;;;16.40;;
74656;SDS011;63185;45.642;13.764;2023-03-01T06:42:33;26.27;;;15.25;;
74656;SDS011;63185;45.642;13.764;2023-03-01T06:45:03;26.85;;;14.85;;
74656;SDS011;63185;45.642;13.764;2023-03-01T06:47:30;28.83;;;16.70;;
74656;SDS011;63185;45.642;13.764;2023-03-01T06:49:58;32.58;;;17.95;;
74656;SDS011;63185;45.642;13.764;2023-03-01T06:52:24;34.85;;;18.15;;
74656;SDS011;63185;45.642;13.764;2023-03-01T06:54:50;33.28;;;18.55;;
74656;SDS011;63185;45.642;13.764;2023-03-01T06:57:16;32.45;;;17.92;;
74656;SDS011;63185;45.642;13.764;2023-03-01T06:59:42;33.80;;;17.48;;
74656;SDS011;63185;45.642;13.764;2023-03-01T07:02:11;31.33;;;18.05;;
74656;SDS011;63185;45.642;13.764;2023-03-01T07:04:37;31.17;;;17.63;;
74656;SDS011;63185;45.642;13.764;2023-03-01T07:07:03;31.90;;;18.30;;
74656;SDS011;63185;45.642;13.764;2023-03-01T07:09:30;36.17;;;18.77;;
74656;SDS011;63185;45.642;13.764;2023-03-01T07:11:56;34.25;;;18.80;;
74656;SDS011;63185;45.642;13.764;2023-03-01T07:14:21;31.48;;;17.38;;
74656;SDS011;63185;45.642;13.764;2023-03-01T07:16:49;31.15;;;17.20;;
74656;SDS011;63185;45.642;13.764;2023-03-01T07:19:15;30.38;;;18.00;;
74656;SDS011;63185;45.642;13.764;2023-03-01T07:21:41;31.52;;;17.90;;
74656;SDS011;63185;45.642;13.764;2023-03-01T07:24:07;28.77;;;16.77;;
74656;SDS011;63185;45.642;13.764;2023-03-01T07:26:34;34.75;;;18.90;;
74656;SDS011;63185;45.642;13.764;2023-03-01T07:29:00;29.95;;;16.23;;
74656;SDS011;63185;45.642;13.764;2023-03-01T07:31:26;30.02;;;17.38;;
74656;SDS011;63185;45.642;13.764;2023-03-01T07:33:55;30.40;;;18.07;;
74656;SDS011;63185;45.642;13.764;2023-03-01T07:36:21;36.42;;;15.13;;
74656;SDS011;63185;45.642;13.764;2023-03-01T07:38:47;28.88;;;17.67;;
74656;SDS011;63185;45.642;13.764;2023-03-01T07:41:13;32.47;;;16.90;;
74656;SDS011;63185;45.642;13.764;2023-03-01T07:43:39;30.92;;;15.10;;
74656;SDS011;63185;45.642;13.764;2023-03-01T07:46:05;27.90;;;16.45;;
74656;SDS011;63185;45.642;13.764;2023-03-01T07:48:32;29.42;;;16.17;;
74656;SDS011;63185;45.642;13.764;2023-03-01T07:51:01;27.67;;;15.93;;
74656;SDS011;63185;45.642;13.764;2023-03-01T07:53:28;31.65;;;17.70;;
74656;SDS011;63185;45.642;13.764;2023-03-01T07:56:02;30.75;;;18.67;;
74656;SDS011;63185;45.642;13.764;2023-03-01T07:58:29;33.50;;;19.17;;
74656;SDS011;63185;45.642;13.764;2023-03-01T08:00:55;32.53;;;17.92;;
74656;SDS011;63185;45.642;13.764;2023-03-01T08:03:21;32.38;;;19.08;;
74656;SDS011;63185;45.642;13.764;2023-03-01T08:05:46;34.20;;;18.58;;
74656;SDS011;63185;45.642;13.764;2023-03-01T08:08:12;32.72;;;19.02;;
74656;SDS011;63185;45.642;13.764;2023-03-01T08:10:38;29.80;;;17.50;;
74656;SDS011;63185;45.642;13.764;2023-03-01T08:13:03;36.22;;;18.50;;
74656;SDS011;63185;45.642;13.764;2023-03-01T08:15:29;34.45;;;18.63;;
74656;SDS011;63185;45.642;13.764;2023-03-01T08:17:55;28.83;;;15.77;;
74656;SDS011;63185;45.642;13.764;2023-03-01T08:20:20;33.20;;;18.63;;
74656;SDS011;63185;45.642;13.764;2023-03-01T08:22:46;31.58;;;17.50;;
74656;SDS011;63185;45.642;13.764;2023-03-01T08:25:11;30.42;;;17.90;;
74656;SDS011;63185;45.642;13.764;2023-03-01T08:27:37;32.72;;;17.30;;
74656;SDS011;63185;45.642;13.764;2023-03-01T08:30:03;29.20;;;15.82;;
74656;SDS011;63185;45.642;13.764;2023-03-01T08:32:29;28.65;;;16.45;;
74656;SDS011;63185;45.642;13.764;2023-03-01T08:34:59;24.08;;;13.30;;
74656;SDS011;63185;45.642;13.764;2023-03-01T08:37:25;30.55;;;16.73;;
74656;SDS011;63185;45.642;13.764;2023-03-01T08:39:51;26.00;;;11.95;;
74656;SDS011;63185;45.642;13.764;2023-03-01T08:42:16;26.08;;;14.30;;
74656;SDS011;63185;45.642;13.764;2023-03-01T08:44:42;28.63;;;13.10;;
74656;SDS011;63185;45.642;13.764;2023-03-01T08:47:08;23.73;;;14.40;;
74656;SDS011;63185;45.642;13.764;2023-03-01T08:49:33;24.50;;;14.23;;
74656;SDS011;63185;45.642;13.764;2023-03-01T08:51:59;25.10;;;12.93;;
74656;SDS011;63185;45.642;13.764;2023-03-01T08:54:27;23.73;;;12.65;;
74656;SDS011;63185;45.642;13.764;2023-03-01T08:56:53;28.02;;;13.45;;
74656;SDS011;63185;45.642;13.764;2023-03-01T08:59:19;26.73;;;12.52;;
74656;SDS011;63185;45.642;13.764;2023-03-01T09:01:45;19.73;;;9.88;;
74656;SDS011;63185;45.642;13.764;2023-03-01T09:04:11;20.33;;;11.40;;
74656;SDS011;63185;45.642;13.764;2023-03-01T09:06:38;18.55;;;11.30;;
74656;SDS011;63185;45.642;13.764;2023-03-01T09:09:04;19.00;;;10.93;;
74656;SDS011;63185;45.642;13.764;2023-03-01T09:11:30;22.17;;;11.45;;
74656;SDS011;63185;45.642;13.764;2023-03-01T09:13:56;21.60;;;11.60;;
74656;SDS011;63185;45.642;13.764;2023-03-01T09:16:22;19.30;;;11.10;;
74656;SDS011;63185;45.642;13.764;2023-03-01T09:18:52;18.60;;;10.63;;
74656;SDS011;63185;45.642;13.764;2023-03-01T09:21:19;18.98;;;9.38;;
74656;SDS011;63185;45.642;13.764;2023-03-01T09:23:46;17.17;;;9.38;;
74656;SDS011;63185;45.642;13.764;2023-03-01T09:26:17;17.52;;;9.35;;
74656;SDS011;63185;45.642;13.764;2023-03-01T09:28:44;17.67;;;9.10;;
74656;SDS011;63185;45.642;13.764;2023-03-01T09:31:10;15.45;;;9.25;;
74656;SDS011;63185;45.642;13.764;2023-03-01T09:33:38;16.33;;;8.98;;
74656;SDS011;63185;45.642;13.764;2023-03-01T09:36:05;13.20;;;8.38;;
74656;SDS011;63185;45.642;13.764;2023-03-01T09:38:33;18.65;;;9.68;;
74656;SDS011;63185;45.642;13.764;2023-03-01T09:40:59;16.58;;;9.70;;
74656;SDS011;63185;45.642;13.764;2023-03-01T09:43:43;16.52;;;10.07;;
74656;SDS011;63185;45.642;13.764;2023-03-01T09:46:12;16.83;;;9.23;;
74656;SDS011;63185;45.642;13.764;2023-03-01T09:48:46;15.15;;;7.90;;
74656;SDS011;63185;45.642;13.764;2023-03-01T09:51:27;20.83;;;10.25;;
74656;SDS011;63185;45.642;13.764;2023-03-01T09:53:56;14.98;;;9.30;;
74656;SDS011;63185;45.642;13.764;2023-03-01T09:56:32;19.92;;;11.48;;
74656;SDS011;63185;45.642;13.764;2023-03-01T09:59:15;19.52;;;9.90;;
74656;SDS011;63185;45.642;13.764;2023-03-01T10:01:52;22.15;;;11.18;;
74656;SDS011;63185;45.642;13.764;2023-03-01T10:09:54;16.05;;;9.63;;
74656;SDS011;63185;45.642;13.764;2023-03-01T10:12:21;19.05;;;10.75;;
74656;SDS011;63185;45.642;13.764;2023-03-01T10:15:00;19.10;;;12.15;;
74656;SDS011;63185;45.642;13.764;2023-03-01T10:22:41;18.58;;;10.25;;
74656;SDS011;63185;45.642;13.764;2023-03-01T10:25:13;20.42;;;11.35;;
74656;SDS011;63185;45.642;13.764;2023-03-01T10:30:22;16.63;;;10.60;;
74656;SDS011;63185;45.642;13.764;2023-03-01T10:33:01;18.27;;;10.95;;
74656;SDS011;63185;45.642;13.764;2023-03-01T10:35:29;20.60;;;11.27;;
74656;SDS011;63185;45.642;13.764;2023-03-01T10:38:08;20.55;;;11.63;;
74656;SDS011;63185;45.642;13.764;2023-03-01T10:40:36;18.67;;;10.75;;
74656;SDS011;63185;45.642;13.764;2023-03-01T10:43:42;20.20;;;11.75;;
74656;SDS011;63185;45.642;13.764;2023-03-01T10:46:32;17.75;;;11.18;;
74656;SDS011;63185;45.642;13.764;2023-03-01T10:49:15;23.00;;;11.95;;
74656;SDS011;63185;45.642;13.764;2023-03-01T10:51:49;20.42;;;11.45;;
74656;SDS011;63185;45.642;13.764;2023-03-01T10:54:20;18.20;;;10.90;;
74656;SDS011;63185;45.642;13.764;2023-03-01T10:56:57;18.55;;;10.93;;
74656;SDS011;63185;45.642;13.764;2023-03-01T10:59:26;14.77;;;8.70;;
74656;SDS011;63185;45.642;13.764;2023-03-01T11:04:35;14.45;;;8.80;;
74656;SDS011;63185;45.642;13.764;2023-03-01T11:07:01;14.77;;;8.70;;
74656;SDS011;63185;45.642;13.764;2023-03-01T11:09:30;15.00;;;9.38;;
74656;SDS011;63185;45.642;13.764;2023-03-01T11:12:03;13.18;;;8.00;;
74656;SDS011;63185;45.642;13.764;2023-03-01T11:14:33;14.30;;;8.93;;
74656;SDS011;63185;45.642;13.764;2023-03-01T11:17:20;18.23;;;8.82;;
74656;SDS011;63185;45.642;13.764;2023-03-01T11:22:55;12.63;;;8.10;;
74656;SDS011;63185;45.642;13.764;2023-03-01T11:25:35;12.77;;;7.95;;
74656;SDS011;63185;45.642;13.764;2023-03-01T11:28:03;13.30;;;8.15;;
74656;SDS011;63185;45.642;13.764;2023-03-01T11:30:32;12.90;;;8.00;;
74656;SDS011;63185;45.642;13.764;2023-03-01T11:33:16;9.95;;;6.90;;
74656;SDS011;63185;45.642;13.764;2023-03-01T11:38:28;10.07;;;6.85;;
74656;SDS011;63185;45.642;13.764;2023-03-01T11:41:00;11.57;;;6.90;;
74656;SDS011;63185;45.642;13.764;2023-03-01T11:56:55;10.25;;;6.57;;
74656;SDS011;63185;45.642;13.764;2023-03-01T12:02:46;9.88;;;6.25;;
74656;SDS011;63185;45.642;13.764;2023-03-01T12:08:25;8.95;;;5.50;;
74656;SDS011;63185;45.642;13.764;2023-03-01T12:16:37;9.23;;;4.93;;
74656;SDS011;63185;45.642;13.764;2023-03-01T12:24:55;7.57;;;4.30;;
74656;SDS011;63185;45.642;13.764;2023-03-01T12:49:56;7.25;;;4.43;;
74656;SDS011;63185;45.642;13.764;2023-03-01T12:52:36;6.35;;;4.25;;
74656;SDS011;63185;45.642;13.764;2023-03-01T12:55:13;6.47;;;3.60;;
74656;SDS011;63185;45.642;13.764;2023-03-01T13:00:32;10.25;;;4.05;;
74656;SDS011;63185;45.642;13.764;2023-03-01T13:05:56;8.45;;;3.97;;
74656;SDS011;63185;45.642;13.764;2023-03-01T13:08:43;6.65;;;3.60;;
74656;SDS011;63185;45.642;13.764;2023-03-01T13:11:25;7.78;;;4.30;;
74656;SDS011;63185;45.642;13.764;2023-03-01T13:13:51;5.68;;;3.60;;
74656;SDS011;63185;45.642;13.764;2023-03-01T13:16:38;6.03;;;4.20;;
74656;SDS011;63185;45.642;13.764;2023-03-01T13:19:15;7.55;;;4.68;;
74656;SDS011;63185;45.642;13.764;2023-03-01T13:21:46;6.18;;;3.80;;
74656;SDS011;63185;45.642;13.764;2023-03-01T13:24:27;7.90;;;4.20;;
74656;SDS011;63185;45.642;13.764;2023-03-01T13:29:55;6.73;;;4.30;;
74656;SDS011;63185;45.642;13.764;2023-03-01T13:32:29;7.90;;;4.95;;
74656;SDS011;63185;45.642;13.764;2023-03-01T13:37:37;8.80;;;4.78;;
74656;SDS011;63185;45.642;13.764;2023-03-01T13:40:05;7.75;;;4.60;;
74656;SDS011;63185;45.642;13.764;2023-03-01T13:42:46;7.85;;;4.13;;
74656;SDS011;63185;45.642;13.764;2023-03-01T13:45:23;7.40;;;4.55;;
74656;SDS011;63185;45.642;13.764;2023-03-01T13:48:24;6.50;;;4.05;;
74656;SDS011;63185;45.642;13.764;2023-03-01T13:50:53;5.18;;;3.53;;
74656;SDS011;63185;45.642;13.764;2023-03-01T13:53:26;5.25;;;3.35;;
74656;SDS011;63185;45.642;13.764;2023-03-01T13:56:02;5.90;;;3.40;;
74656;SDS011;63185;45.642;13.764;2023-03-01T13:58:33;6.28;;;3.60;;
74656;SDS011;63185;45.642;13.764;2023-03-01T14:01:30;8.88;;;3.15;;
74656;SDS011;63185;45.642;13.764;2023-03-01T14:04:02;4.93;;;3.42;;
74656;SDS011;63185;45.642;13.764;2023-03-01T14:06:42;6.57;;;3.88;;
74656;SDS011;63185;45.642;13.764;2023-03-01T14:09:21;4.95;;;3.10;;
74656;SDS011;63185;45.642;13.764;2023-03-01T14:19:47;8.20;;;3.47;;
74656;SDS011;63185;45.642;13.764;2023-03-01T14:27:26;6.43;;;2.55;;
74656;SDS011;63185;45.642;13.764;2023-03-01T14:30:03;6.80;;;3.53;;
74656;SDS011;63185;45.642;13.764;2023-03-01T14:32:37;4.90;;;3.15;;
74656;SDS011;63185;45.642;13.764;2023-03-01T14:35:18;6.97;;;3.40;;
74656;SDS011;63185;45.642;13.764;2023-03-01T14:37:48;5.80;;;3.08;;
74656;SDS011;63185;45.642;13.764;2023-03-01T14:40:26;5.90;;;2.88;;
74656;SDS011;63185;45.642;13.764;2023-03-01T14:42:56;4.85;;;2.85;;
74656;SDS011;63185;45.642;13.764;2023-03-01T14:45:24;5.45;;;3.22;;
74656;SDS011;63185;45.642;13.764;2023-03-01T14:47:51;4.95;;;2.78;;
74656;SDS011;63185;45.642;13.764;2023-03-01T14:52:48;9.07;;;4.13;;
74656;SDS011;63185;45.642;13.764;2023-03-01T14:55:23;5.30;;;2.95;;
74656;SDS011;63185;45.642;13.764;2023-03-01T14:57:53;5.45;;;3.13;;
74656;SDS011;63185;45.642;13.764;2023-03-01T15:00:24;5.20;;;2.80;;
74656;SDS011;63185;45.642;13.764;2023-03-01T15:02:55;5.85;;;3.30;;
74656;SDS011;63185;45.642;13.764;2023-03-01T15:05:29;7.55;;;3.40;;
74656;SDS011;63185;45.642;13.764;2023-03-01T15:07:58;5.55;;;2.88;;
74656;SDS011;63185;45.642;13.764;2023-03-01T15:10:28;4.15;;;2.55;;
74656;SDS011;63185;45.642;13.764;2023-03-01T15:13:14;5.35;;;2.72;;
74656;SDS011;63185;45.642;13.764;2023-03-01T15:15:47;4.35;;;2.30;;
74656;SDS011;63185;45.642;13.764;2023-03-01T15:18:20;7.00;;;3.28;;
74656;SDS011;63185;45.642;13.764;2023-03-01T15:20:50;4.95;;;2.70;;
74656;SDS011;63185;45.642;13.764;2023-03-01T15:23:23;8.25;;;4.00;;
74656;SDS011;63185;45.642;13.764;2023-03-01T15:25:53;8.05;;;3.60;;
74656;SDS011;63185;45.642;13.764;2023-03-01T15:28:48;4.78;;;2.50;;
74656;SDS011;63185;45.642;13.764;2023-03-01T15:31:24;9.02;;;3.38;;
74656;SDS011;63185;45.642;13.764;2023-03-01T15:34:29;16.05;;;4.85;;
74656;SDS011;63185;45.642;13.764;2023-03-01T15:36:50;3.00;;;2.00;;
74656;SDS011;63185;45.642;13.764;2023-03-01T15:42:04;2.25;;;1.30;;
74656;SDS011;63185;45.642;13.764;2023-03-01T15:47:52;2.08;;;1.23;;
74656;SDS011;63185;45.642;13.764;2023-03-01T15:50:22;1.92;;;1.10;;
74656;SDS011;63185;45.642;13.764;2023-03-01T15:52:52;2.58;;;1.13;;
74656;SDS011;63185;45.642;13.764;2023-03-01T15:55:19;3.10;;;1.13;;
74656;SDS011;63185;45.642;13.764;2023-03-01T15:57:47;2.15;;;1.20;;
74656;SDS011;63185;45.642;13.764;2023-03-01T16:00:14;1.98;;;1.20;;
74656;SDS011;63185;45.642;13.764;2023-03-01T16:02:41;1.90;;;1.10;;
74656;SDS011;63185;45.642;13.764;2023-03-01T16:07:43;1.75;;;1.02;;
74656;SDS011;63185;45.642;13.764;2023-03-01T16:10:09;1.73;;;1.00;;
74656;SDS011;63185;45.642;13.764;2023-03-01T16:12:35;2.33;;;0.98;;
74656;SDS011;63185;45.642;13.764;2023-03-01T16:15:00;1.40;;;0.95;;
74656;SDS011;63185;45.642;13.764;2023-03-01T16:17:27;1.42;;;0.70;;
74656;SDS011;63185;45.642;13.764;2023-03-01T16:19:53;1.75;;;0.95;;
74656;SDS011;63185;45.642;13.764;2023-03-01T16:22:18;1.20;;;0.80;;
74656;SDS011;63185;45.642;13.764;2023-03-01T16:24:49;1.77;;;0.80;;
74656;SDS011;63185;45.642;13.764;2023-03-01T16:27:15;1.00;;;0.68;;
74656;SDS011;63185;45.642;13.764;2023-03-01T16:29:41;1.30;;;0.65;;
74656;SDS011;63185;45.642;13.764;2023-03-01T16:32:07;2.47;;;0.80;;
74656;SDS011;63185;45.642;13.764;2023-03-01T16:34:32;1.73;;;0.90;;
74656;SDS011;63185;45.642;13.764;2023-03-01T16:36:58;1.48;;;0.73;;